Billie H — WCY4992 — position and weather

sailwx.info

Track history (hours):
 
Tides and Currents Weather Stations Pressure Air Temp Water Temp Dewpoint Dewpoint Depression Visibility Wind Speed Wind Dir Waves Ship Positions

Billie H

Owner: BOYER TOWING INC, KETCHIKAN, AK. More information available from US FCC via Universal Licensing System and Coast Guard Vessel Documentation Center.

Last reported at 2017-Jul-29 07:31 UTC. Time now 2017-Aug-23 21:11 UTC.
Position N 47°32' W 122°20'.
Warning: this ship's position is 25 days out of date.

Type: Tow > 200 m length. MMSI: 366751770.

Date/timePositionNaut miles runAvg speedWind from/ knotsBaromVisibWave heightAir tempDewpointWater temp
2017-Jul-29 07:31N 47°32' W 122°20'0 0.0
2017-Jul-29 07:30N 47°32' W 122°20'2 4.4
2017-Jul-29 06:59N 47°34' W 122°21'4 8.4
2017-Jul-29 06:31N 47°35' W 122°27'510.3
2017-Jul-29 06:00N 47°35' W 122°35'4 8.5
2017-Jul-29 05:29N 47°32' W 122°40'0 0.0
2017-Jul-29 04:56N 47°32' W 122°40'0 0.1
2017-Jul-29 04:29N 47°32' W 122°40'2 3.1
2017-Jul-29 03:56N 47°33' W 122°38'4 9.8
2017-Jul-29 03:31N 47°36' W 122°33'3 6.4
2017-Jul-29 03:00N 47°35' W 122°28'5 9.8
2017-Jul-29 02:30N 47°40' W 122°28'5 9.8
2017-Jul-29 02:00N 47°45' W 122°27'5 9.7
2017-Jul-29 01:30N 47°50' W 122°28'510.1
2017-Jul-29 01:00N 47°54' W 122°30'610.2
2017-Jul-29 00:26N 47°59' W 122°36'17 9.4
2017-Jul-28 22:39N 48°11' W 122°53'2 9.8
2017-Jul-28 22:29N 48°11' W 122°55'5 8.9
2017-Jul-28 21:56N 48°12' W 123°03'4 9.3
2017-Jul-28 21:30N 48°12' W 123°09'4 8.3
2017-Jul-28 20:59N 48°12' W 123°15'4 7.7
2017-Jul-28 20:29N 48°13' W 123°21'4 7.9
2017-Jul-28 20:00N 48°13' W 123°27'4 7.4
2017-Jul-28 19:27N 48°13' W 123°33'3 7.3
2017-Jul-28 19:00N 48°13' W 123°38'4 7.2
2017-Jul-28 18:30N 48°13' W 123°43'4 7.8
2017-Jul-28 18:00N 48°13' W 123°49'4 7.9
2017-Jul-28 17:30N 48°13' W 123°55'4 8.4
2017-Jul-28 16:59N 48°14' W 124°01'5 8.7
2017-Jul-28 16:28N 48°16' W 124°07'4 9.2
2017-Jul-28 16:00N 48°18' W 124°13'5 9.2
2017-Jul-28 15:30N 48°20' W 124°19'5 9.3
2017-Jul-28 15:00N 48°22' W 124°26'4 9.0
2017-Jul-28 14:30N 48°24' W 124°32'4 8.9
2017-Jul-28 14:00N 48°25' W 124°38'4 8.2
2017-Jul-28 13:30N 48°26' W 124°44'5 9.5
2017-Jul-28 13:00N 48°24' W 124°50'7 9.9
2017-Jul-28 12:19N 48°18' W 124°55'3 9.6
2017-Jul-28 11:58N 48°15' W 124°58'67 9.7
2017-Jul-28 05:02N 47°10' W 124°35'0 0.1
2017-Jul-28 04:13N 47°09' W 124°35'2 8.6
2017-Jul-28 04:00N 47°08' W 124°34'4 8.8
2017-Jul-28 03:30N 47°03' W 124°33'4 8.8
2017-Jul-28 03:00N 46°59' W 124°31'4 8.5
2017-Jul-28 02:29N 46°55' W 124°30'4 8.5
2017-Jul-28 02:00N 46°51' W 124°29'4 8.6
2017-Jul-28 01:30N 46°47' W 124°28'4 8.7
2017-Jul-28 01:00N 46°42' W 124°26'4 8.7
2017-Jul-28 00:30N 46°38' W 124°25'4 8.9
2017-Jul-28 00:00N 46°34' W 124°24'4 8.7
2017-Jul-27 23:30N 46°29' W 124°22'4 8.6
2017-Jul-27 23:00N 46°25' W 124°20'4 8.7
2017-Jul-27 22:30N 46°22' W 124°17'4 8.7
2017-Jul-27 22:00N 46°18' W 124°13'4 8.1
2017-Jul-27 21:30N 46°15' W 124°09'4 7.1
2017-Jul-27 21:00N 46°15' W 124°04'3 6.9
2017-Jul-27 20:30N 46°14' W 123°59'4 8.7
2017-Jul-27 20:00N 46°11' W 123°54'5 9.8
2017-Jul-27 19:30N 46°13' W 123°47'510.0
2017-Jul-27 19:00N 46°15' W 123°41'510.3
2017-Jul-27 18:30N 46°15' W 123°34'510.0
2017-Jul-27 18:00N 46°15' W 123°26'611.0
2017-Jul-27 17:30N 46°10' W 123°24'510.6
2017-Jul-27 17:00N 46°09' W 123°16'611.1
2017-Jul-27 16:30N 46°11' W 123°09'510.5
2017-Jul-27 16:00N 46°09' W 123°02'510.1
2017-Jul-27 15:30N 46°06' W 122°57'4 9.0
2017-Jul-27 15:00N 46°02' W 122°53'9 8.8
2017-Jul-27 14:00N 45°54' W 122°48'4 8.9
2017-Jul-27 13:30N 45°50' W 122°48'5 9.5
2017-Jul-27 13:00N 45°45' W 122°46'510.1
2017-Jul-27 12:30N 45°40' W 122°46'3 5.3
2017-Jul-27 12:00N 45°37' W 122°47'0 0.2
2017-Jul-27 11:13N 45°37' W 122°47'0 0.3
2017-Jul-27 11:00N 45°37' W 122°47'0 0.0
2017-Jul-27 10:30N 45°37' W 122°47'0 0.0
2017-Jul-27 10:00N 45°37' W 122°47'0 0.0
2017-Jul-27 09:30N 45°37' W 122°47'0 0.0
2017-Jul-27 09:00N 45°37' W 122°47'0 0.0
2017-Jul-27 08:30N 45°37' W 122°47'0 0.0
2017-Jul-27 08:00N 45°37' W 122°47'0 0.0
2017-Jul-27 07:30N 45°37' W 122°47'0 0.0
2017-Jul-27 07:00N 45°37' W 122°47'0 0.0
2017-Jul-27 06:30N 45°37' W 122°47'0 0.0
2017-Jul-27 06:00N 45°37' W 122°47'0 0.0
2017-Jul-27 05:30N 45°37' W 122°47'0 0.0
2017-Jul-27 05:00N 45°37' W 122°47'0 0.0
2017-Jul-27 04:30N 45°37' W 122°47'0 0.0
2017-Jul-27 04:00N 45°37' W 122°47'0 0.0
2017-Jul-27 03:30N 45°37' W 122°47'0 0.0
2017-Jul-27 03:00N 45°37' W 122°47'0 0.0
2017-Jul-27 02:30N 45°37' W 122°47'0 0.0
2017-Jul-27 02:00N 45°37' W 122°47'0 0.0
2017-Jul-27 01:30N 45°37' W 122°47'0 0.0
2017-Jul-27 01:00N 45°37' W 122°47'0 0.0
2017-Jul-27 00:30N 45°37' W 122°47'0 0.0
2017-Jul-27 00:00N 45°37' W 122°47'0 0.0
2017-Jul-26 23:30N 45°37' W 122°47'0 0.0
2017-Jul-26 23:00N 45°37' W 122°47'0 0.0
2017-Jul-26 22:30N 45°37' W 122°47'0 0.0
2017-Jul-26 22:00N 45°37' W 122°47'0 0.0
2017-Jul-26 21:30N 45°37' W 122°47'0 0.0
2017-Jul-26 21:00N 45°37' W 122°47'0 0.0
2017-Jul-26 20:30N 45°37' W 122°47'0 0.0
2017-Jul-26 20:00N 45°37' W 122°47'0 0.0
2017-Jul-26 19:30N 45°37' W 122°47'0 0.0
2017-Jul-26 19:00N 45°37' W 122°47'0 0.0
2017-Jul-26 18:30N 45°37' W 122°47'0 0.0
2017-Jul-26 18:00N 45°37' W 122°47'0 0.0
2017-Jul-26 17:30N 45°37' W 122°47'0 0.0
2017-Jul-26 17:00N 45°37' W 122°47'0 0.0
2017-Jul-26 16:30N 45°37' W 122°47'0 0.0
2017-Jul-26 16:00N 45°37' W 122°47'0 0.0
2017-Jul-26 15:30N 45°37' W 122°47'0 0.0
2017-Jul-26 15:00N 45°37' W 122°47'0 0.0
2017-Jul-26 14:00N 45°37' W 122°47'0 0.0
2017-Jul-26 13:30N 45°37' W 122°47'0 0.0
2017-Jul-26 13:00N 45°37' W 122°47'0 0.0
2017-Jul-26 12:30N 45°37' W 122°47'0 0.0
2017-Jul-26 12:00N 45°37' W 122°47'0 0.0
2017-Jul-26 11:30N 45°37' W 122°47'0 0.0
2017-Jul-26 11:00N 45°37' W 122°47'0 0.0
2017-Jul-26 10:30N 45°37' W 122°47'0 0.0
2017-Jul-26 10:00N 45°37' W 122°47'0 0.0
2017-Jul-26 09:30N 45°37' W 122°47'0 0.0
2017-Jul-26 09:00N 45°37' W 122°47'0 0.0
2017-Jul-26 08:30N 45°37' W 122°47'0 0.0
2017-Jul-26 08:00N 45°37' W 122°47'0 0.0
2017-Jul-26 07:30N 45°37' W 122°47'0 0.0
2017-Jul-26 07:00N 45°37' W 122°47'0 0.0
2017-Jul-26 06:30N 45°37' W 122°47'0 0.0
2017-Jul-26 06:00N 45°37' W 122°47'0 0.0
2017-Jul-26 05:30N 45°37' W 122°47'0 0.0
2017-Jul-26 05:00N 45°37' W 122°47'0 0.0
2017-Jul-26 04:30N 45°37' W 122°47'0 0.0
2017-Jul-26 04:00N 45°37' W 122°47'0 0.0
2017-Jul-26 03:30N 45°37' W 122°47'0 0.0
2017-Jul-26 03:00N 45°37' W 122°47'0 0.0
2017-Jul-26 02:30N 45°37' W 122°47'0 0.0
2017-Jul-26 02:00N 45°37' W 122°47'0 0.0
2017-Jul-26 01:30N 45°37' W 122°47'0 0.0
2017-Jul-26 01:00N 45°37' W 122°47'0 0.0
2017-Jul-26 00:30N 45°37' W 122°47'0 0.0
2017-Jul-26 00:00N 45°37' W 122°47'0 0.0
2017-Jul-25 23:30N 45°37' W 122°47'0 0.0
2017-Jul-25 23:00N 45°37' W 122°47'0 0.0
2017-Jul-25 22:30N 45°37' W 122°47'0 0.0
2017-Jul-25 22:00N 45°37' W 122°47'0 0.0
2017-Jul-25 21:30N 45°37' W 122°47'0 0.0
2017-Jul-25 21:00N 45°37' W 122°47'0 0.0
2017-Jul-25 20:30N 45°37' W 122°47'0 0.0
2017-Jul-25 20:00N 45°37' W 122°47'0 0.0
2017-Jul-25 19:30N 45°37' W 122°47'0 0.0
2017-Jul-25 19:00N 45°37' W 122°47'0 0.0
2017-Jul-25 18:30N 45°37' W 122°47'0 0.0
2017-Jul-25 18:00N 45°37' W 122°47'0 0.0
2017-Jul-25 17:30N 45°37' W 122°47'0 0.0
2017-Jul-25 17:00N 45°37' W 122°47'0 0.0
2017-Jul-25 16:30N 45°37' W 122°47'0 0.0
2017-Jul-25 16:00N 45°37' W 122°47'0 0.0
2017-Jul-25 15:30N 45°37' W 122°47'0 0.0
2017-Jul-25 15:00N 45°37' W 122°47'0 0.0
2017-Jul-25 14:00N 45°37' W 122°47'0 0.0
2017-Jul-25 13:30N 45°37' W 122°47'0 0.0
2017-Jul-25 13:00N 45°37' W 122°47'0 0.0
2017-Jul-25 12:30N 45°37' W 122°47'0 0.0
2017-Jul-25 12:00N 45°37' W 122°47'0 0.0
2017-Jul-25 11:30N 45°37' W 122°47'0 0.0
2017-Jul-25 11:00N 45°37' W 122°47'0 0.0
2017-Jul-25 10:30N 45°37' W 122°47'0 0.0
2017-Jul-25 10:00N 45°37' W 122°47'0 0.0
2017-Jul-25 09:30N 45°37' W 122°47'0 0.0
2017-Jul-25 09:00N 45°37' W 122°47'0 0.1
2017-Jul-25 08:30N 45°37' W 122°47'0 0.0
2017-Jul-25 08:00N 45°37' W 122°47'0 0.0
2017-Jul-25 07:30N 45°37' W 122°47'0 0.0
2017-Jul-25 07:00N 45°37' W 122°47'0 0.1
2017-Jul-25 06:30N 45°37' W 122°47'0 0.4
2017-Jul-25 06:00N 45°38' W 122°47'2 4.9
2017-Jul-25 05:30N 45°40' W 122°46'3 5.0
2017-Jul-25 05:00N 45°42' W 122°46'3 5.1
2017-Jul-25 04:30N 45°45' W 122°46'3 5.1
2017-Jul-25 04:00N 45°47' W 122°47'3 5.2
2017-Jul-25 03:30N 45°50' W 122°48'3 5.5
2017-Jul-25 03:00N 45°53' W 122°48'3 6.1
2017-Jul-25 02:30N 45°55' W 122°48'3 6.3
2017-Jul-25 01:59N 45°59' W 122°50'3 6.8
2017-Jul-25 01:30N 46°01' W 122°52'4 7.0
2017-Jul-25 00:59N 46°05' W 122°54'3 7.0
2017-Jul-25 00:30N 46°07' W 122°58'4 7.0
2017-Jul-25 00:00N 46°09' W 123°02'4 7.0
2017-Jul-24 23:30N 46°11' W 123°06'3 6.7
2017-Jul-24 23:00N 46°11' W 123°11'3 7.1
2017-Jul-24 22:30N 46°09' W 123°16'3 6.9
2017-Jul-24 22:00N 46°09' W 123°21'3 6.5
2017-Jul-24 21:30N 46°10' W 123°25'3 6.2
2017-Jul-24 21:00N 46°13' W 123°25'3 6.7
2017-Jul-24 20:30N 46°16' W 123°28'3 6.5
2017-Jul-24 20:00N 46°16' W 123°33'3 7.0
2017-Jul-24 19:30N 46°16' W 123°38'3 6.9
2017-Jul-24 19:00N 46°15' W 123°42'4 7.0
2017-Jul-24 18:30N 46°13' W 123°47'3 6.5
2017-Jul-24 18:00N 46°12' W 123°51'3 6.2
2017-Jul-24 17:30N 46°12' W 123°56'3 6.5
2017-Jul-24 17:00N 46°14' W 123°59'3 5.7
2017-Jul-24 16:30N 46°16' W 124°03'1 3.0
2017-Jul-24 16:00N 46°15' W 124°05'9 3.1
2017-Jul-24 13:00N 46°16' W 124°18'3 5.8
2017-Jul-24 12:30N 46°19' W 124°19'3 5.8
2017-Jul-24 12:00N 46°22' W 124°20'3 5.9
2017-Jul-24 11:30N 46°25' W 124°21'3 6.0
2017-Jul-24 11:00N 46°28' W 124°22'3 6.0
2017-Jul-24 10:30N 46°31' W 124°23'3 5.9
2017-Jul-24 10:00N 46°34' W 124°24'3 5.9
2017-Jul-24 09:30N 46°37' W 124°25'3 5.9
2017-Jul-24 09:00N 46°39' W 124°26'3 6.0
2017-Jul-24 08:30N 46°42' W 124°27'3 5.8
2017-Jul-24 08:00N 46°45' W 124°27'3 5.9
2017-Jul-24 07:30N 46°48' W 124°28'3 6.0
2017-Jul-24 07:00N 46°51' W 124°29'3 6.3
2017-Jul-24 06:30N 46°54' W 124°30'3 6.7
2017-Jul-24 06:00N 46°57' W 124°31'4 7.2
2017-Jul-24 05:30N 47°01' W 124°32'4 7.5
2017-Jul-24 05:00N 47°05' W 124°34'4 7.5
2017-Jul-24 04:30N 47°08' W 124°35'67 6.3
2017-Jul-23 17:50N 48°14' W 124°59'2 6.1
2017-Jul-23 17:30N 48°15' W 124°57'3 6.3
2017-Jul-23 16:59N 48°18' W 124°55'3 6.5
2017-Jul-23 16:30N 48°21' W 124°52'4 7.1
2017-Jul-23 16:00N 48°24' W 124°49'4 7.2
2017-Jul-23 15:30N 48°26' W 124°45'4 7.7
2017-Jul-23 15:00N 48°25' W 124°39'4 8.1
2017-Jul-23 14:30N 48°24' W 124°34'4 8.5
2017-Jul-23 14:00N 48°22' W 124°28'4 8.6
2017-Jul-23 13:30N 48°20' W 124°22'4 8.2
2017-Jul-23 13:00N 48°18' W 124°16'4 8.0
2017-Jul-23 12:30N 48°17' W 124°11'4 7.6
2017-Jul-23 11:59N 48°15' W 124°06'4 7.4
2017-Jul-23 11:30N 48°13' W 124°01'3 6.8
2017-Jul-23 11:00N 48°12' W 123°56'3 6.1
2017-Jul-23 10:30N 48°12' W 123°52'3 6.2
2017-Jul-23 10:00N 48°12' W 123°47'3 6.0
2017-Jul-23 09:30N 48°12' W 123°42'3 6.2
2017-Jul-23 09:00N 48°12' W 123°38'4 7.4
2017-Jul-23 08:30N 48°14' W 123°33'3 6.5
2017-Jul-23 08:00N 48°17' W 123°30'3 6.7
2017-Jul-23 07:30N 48°20' W 123°27'3 6.2
2017-Jul-23 07:00N 48°22' W 123°25'3 6.4
2017-Jul-23 06:30N 48°23' W 123°20'3 6.3
2017-Jul-23 06:00N 48°24' W 123°15'3 6.6
2017-Jul-23 05:30N 48°26' W 123°12'4 7.6
2017-Jul-23 05:00N 48°30' W 123°12'4 8.9
2017-Jul-23 04:30N 48°34' W 123°14'5 8.9
2017-Jul-23 04:00N 48°39' W 123°16'5 8.5
2017-Jul-23 03:22N 48°44' W 123°18'26 6.7
2017-Jul-22 23:28N 49°08' W 123°36'3 6.2
2017-Jul-22 22:57N 49°10' W 123°38'26 6.7
2017-Jul-22 19:07N 49°28' W 124°07'12 6.4
2017-Jul-22 17:16N 49°34' W 124°23'2 6.7
2017-Jul-22 16:59N 49°35' W 124°25'3 6.4
2017-Jul-22 16:29N 49°37' W 124°29'3 6.4
2017-Jul-22 15:57N 49°39' W 124°33'3 6.5
2017-Jul-22 15:28N 49°41' W 124°37'3 6.5
2017-Jul-22 15:00N 49°43' W 124°40'6 6.5
2017-Jul-22 14:01N 49°47' W 124°48'3 6.4
2017-Jul-22 13:30N 49°49' W 124°51'3 6.5
2017-Jul-22 13:00N 49°51' W 124°55'3 6.7
2017-Jul-22 12:30N 49°53' W 124°60'3 6.8
2017-Jul-22 12:00N 49°55' W 125°04'4 8.1
2017-Jul-22 11:30N 49°57' W 125°09'4 7.4
2017-Jul-22 11:00N 50°00' W 125°13'4 8.7
2017-Jul-22 10:31N 50°04' W 125°15'4 8.9
2017-Jul-22 10:00N 50°07' W 125°20'4 7.4
2017-Jul-22 09:30N 50°11' W 125°22'3 5.9
2017-Jul-22 09:00N 50°14' W 125°23'2 4.8
2017-Jul-22 08:30N 50°16' W 125°24'3 5.2
2017-Jul-22 07:59N 50°19' W 125°25'2 4.2
2017-Jul-22 07:28N 50°20' W 125°27'51 5.3
2017-Jul-21 21:47N 50°36' W 126°44'10 8.2
2017-Jul-21 20:34N 50°42' W 126°56'1 7.7
2017-Jul-21 20:29N 50°42' W 126°57'4 7.4
2017-Jul-21 19:56N 50°43' W 127°03'5 7.2
2017-Jul-21 19:13N 50°45' W 127°11'2 7.3
2017-Jul-21 18:53N 50°46' W 127°14'3 7.5
2017-Jul-21 18:30N 50°47' W 127°18'4 7.2
2017-Jul-21 18:00N 50°49' W 127°24'4 7.1
2017-Jul-21 17:30N 50°50' W 127°29'4 7.6
2017-Jul-21 17:01N 50°52' W 127°34'3 6.8
2017-Jul-21 16:30N 50°54' W 127°39'3 6.5
2017-Jul-21 16:01N 50°56' W 127°42'3 6.6
2017-Jul-21 15:31N 50°59' W 127°46'4 7.0
2017-Jul-21 15:01N 51°02' W 127°49'4 7.2
2017-Jul-21 14:31N 51°05' W 127°50'4 7.0
2017-Jul-21 14:01N 51°09' W 127°51'3 7.0
2017-Jul-21 13:30N 51°12' W 127°52'3 7.0
2017-Jul-21 13:01N 51°15' W 127°53'7 7.0
2017-Jul-21 12:01N 51°22' W 127°58'2 6.8
2017-Jul-21 11:44N 51°23' W 128°00'1 6.7
2017-Jul-21 11:31N 51°24' W 128°02'3 6.7
2017-Jul-21 11:01N 51°26' W 128°06'3 6.7
2017-Jul-21 10:30N 51°28' W 128°10'3 6.9
2017-Jul-21 10:00N 51°31' W 128°14'4 7.2
2017-Jul-21 09:31N 51°34' W 128°17'4 7.4
2017-Jul-21 09:01N 51°37' W 128°20'4 7.4
2017-Jul-21 08:30N 51°40' W 128°23'4 7.8
2017-Jul-21 08:01N 51°44' W 128°26'4 7.7
2017-Jul-21 07:30N 51°47' W 128°29'4 7.5
2017-Jul-21 07:01N 51°50' W 128°32'4 7.7
2017-Jul-21 06:31N 51°54' W 128°35'4 7.7
2017-Jul-21 06:00N 51°57' W 128°37'4 7.5
2017-Jul-21 05:30N 52°01' W 128°39'4 7.2
2017-Jul-21 05:00N 52°04' W 128°41'3 6.7
2017-Jul-21 04:31N 52°08' W 128°43'4 6.7
2017-Jul-21 03:55N 52°11' W 128°45'  
Track history (hours):
 
Tides and Currents Weather Stations Pressure Air Temp Water Temp Dewpoint Dewpoint Depression Visibility Wind Speed Wind Dir Waves Ship Positions

Billie H

Owner: BOYER TOWING INC, KETCHIKAN, AK. More information available from US FCC via Universal Licensing System and Coast Guard Vessel Documentation Center.

Last reported at 2017-Jul-29 07:31 UTC. Time now 2017-Aug-23 21:11 UTC.
Position N 47°32' W 122°20'.
Warning: this ship's position is 25 days out of date.

Type: Tow > 200 m length. MMSI: 366751770.

Date/timePositionNaut miles runAvg speedWind from/ knotsBaromVisibWave heightAir tempDewpointWater temp
2017-Jul-29 07:31N 47°32' W 122°20'0 0.0
2017-Jul-29 07:30N 47°32' W 122°20'2 4.4
2017-Jul-29 06:59N 47°34' W 122°21'4 8.4
2017-Jul-29 06:31N 47°35' W 122°27'510.3
2017-Jul-29 06:00N 47°35' W 122°35'4 8.5
2017-Jul-29 05:29N 47°32' W 122°40'0 0.0
2017-Jul-29 04:56N 47°32' W 122°40'0 0.1
2017-Jul-29 04:29N 47°32' W 122°40'2 3.1
2017-Jul-29 03:56N 47°33' W 122°38'4 9.8
2017-Jul-29 03:31N 47°36' W 122°33'3 6.4
2017-Jul-29 03:00N 47°35' W 122°28'5 9.8
2017-Jul-29 02:30N 47°40' W 122°28'5 9.8
2017-Jul-29 02:00N 47°45' W 122°27'5 9.7
2017-Jul-29 01:30N 47°50' W 122°28'510.1
2017-Jul-29 01:00N 47°54' W 122°30'610.2
2017-Jul-29 00:26N 47°59' W 122°36'17 9.4
2017-Jul-28 22:39N 48°11' W 122°53'2 9.8
2017-Jul-28 22:29N 48°11' W 122°55'5 8.9
2017-Jul-28 21:56N 48°12' W 123°03'4 9.3
2017-Jul-28 21:30N 48°12' W 123°09'4 8.3
2017-Jul-28 20:59N 48°12' W 123°15'4 7.7
2017-Jul-28 20:29N 48°13' W 123°21'4 7.9
2017-Jul-28 20:00N 48°13' W 123°27'4 7.4
2017-Jul-28 19:27N 48°13' W 123°33'3 7.3
2017-Jul-28 19:00N 48°13' W 123°38'4 7.2
2017-Jul-28 18:30N 48°13' W 123°43'4 7.8
2017-Jul-28 18:00N 48°13' W 123°49'4 7.9
2017-Jul-28 17:30N 48°13' W 123°55'4 8.4
2017-Jul-28 16:59N 48°14' W 124°01'5 8.7
2017-Jul-28 16:28N 48°16' W 124°07'4 9.2
2017-Jul-28 16:00N 48°18' W 124°13'5 9.2
2017-Jul-28 15:30N 48°20' W 124°19'5 9.3
2017-Jul-28 15:00N 48°22' W 124°26'4 9.0
2017-Jul-28 14:30N 48°24' W 124°32'4 8.9
2017-Jul-28 14:00N 48°25' W 124°38'4 8.2
2017-Jul-28 13:30N 48°26' W 124°44'5 9.5
2017-Jul-28 13:00N 48°24' W 124°50'7 9.9
2017-Jul-28 12:19N 48°18' W 124°55'3 9.6
2017-Jul-28 11:58N 48°15' W 124°58'67 9.7
2017-Jul-28 05:02N 47°10' W 124°35'0 0.1
2017-Jul-28 04:13N 47°09' W 124°35'2 8.6
2017-Jul-28 04:00N 47°08' W 124°34'4 8.8
2017-Jul-28 03:30N 47°03' W 124°33'4 8.8
2017-Jul-28 03:00N 46°59' W 124°31'4 8.5
2017-Jul-28 02:29N 46°55' W 124°30'4 8.5
2017-Jul-28 02:00N 46°51' W 124°29'4 8.6
2017-Jul-28 01:30N 46°47' W 124°28'4 8.7
2017-Jul-28 01:00N 46°42' W 124°26'4 8.7
2017-Jul-28 00:30N 46°38' W 124°25'4 8.9
2017-Jul-28 00:00N 46°34' W 124°24'4 8.7
2017-Jul-27 23:30N 46°29' W 124°22'4 8.6
2017-Jul-27 23:00N 46°25' W 124°20'4 8.7
2017-Jul-27 22:30N 46°22' W 124°17'4 8.7
2017-Jul-27 22:00N 46°18' W 124°13'4 8.1
2017-Jul-27 21:30N 46°15' W 124°09'4 7.1
2017-Jul-27 21:00N 46°15' W 124°04'3 6.9
2017-Jul-27 20:30N 46°14' W 123°59'4 8.7
2017-Jul-27 20:00N 46°11' W 123°54'5 9.8
2017-Jul-27 19:30N 46°13' W 123°47'510.0
2017-Jul-27 19:00N 46°15' W 123°41'510.3
2017-Jul-27 18:30N 46°15' W 123°34'510.0
2017-Jul-27 18:00N 46°15' W 123°26'611.0
2017-Jul-27 17:30N 46°10' W 123°24'510.6
2017-Jul-27 17:00N 46°09' W 123°16'611.1
2017-Jul-27 16:30N 46°11' W 123°09'510.5
2017-Jul-27 16:00N 46°09' W 123°02'510.1
2017-Jul-27 15:30N 46°06' W 122°57'4 9.0
2017-Jul-27 15:00N 46°02' W 122°53'9 8.8
2017-Jul-27 14:00N 45°54' W 122°48'4 8.9
2017-Jul-27 13:30N 45°50' W 122°48'5 9.5
2017-Jul-27 13:00N 45°45' W 122°46'510.1
2017-Jul-27 12:30N 45°40' W 122°46'3 5.3
2017-Jul-27 12:00N 45°37' W 122°47'0 0.2
2017-Jul-27 11:13N 45°37' W 122°47'0 0.3
2017-Jul-27 11:00N 45°37' W 122°47'0 0.0
2017-Jul-27 10:30N 45°37' W 122°47'0 0.0
2017-Jul-27 10:00N 45°37' W 122°47'0 0.0
2017-Jul-27 09:30N 45°37' W 122°47'0 0.0
2017-Jul-27 09:00N 45°37' W 122°47'0 0.0
2017-Jul-27 08:30N 45°37' W 122°47'0 0.0
2017-Jul-27 08:00N 45°37' W 122°47'0 0.0
2017-Jul-27 07:30N 45°37' W 122°47'0 0.0
2017-Jul-27 07:00N 45°37' W 122°47'0 0.0
2017-Jul-27 06:30N 45°37' W 122°47'0 0.0
2017-Jul-27 06:00N 45°37' W 122°47'0 0.0
2017-Jul-27 05:30N 45°37' W 122°47'0 0.0
2017-Jul-27 05:00N 45°37' W 122°47'0 0.0
2017-Jul-27 04:30N 45°37' W 122°47'0 0.0
2017-Jul-27 04:00N 45°37' W 122°47'0 0.0
2017-Jul-27 03:30N 45°37' W 122°47'0 0.0
2017-Jul-27 03:00N 45°37' W 122°47'0 0.0
2017-Jul-27 02:30N 45°37' W 122°47'0 0.0
2017-Jul-27 02:00N 45°37' W 122°47'0 0.0
2017-Jul-27 01:30N 45°37' W 122°47'0 0.0
2017-Jul-27 01:00N 45°37' W 122°47'0 0.0
2017-Jul-27 00:30N 45°37' W 122°47'0 0.0
2017-Jul-27 00:00N 45°37' W 122°47'0 0.0
2017-Jul-26 23:30N 45°37' W 122°47'0 0.0
2017-Jul-26 23:00N 45°37' W 122°47'0 0.0
2017-Jul-26 22:30N 45°37' W 122°47'0 0.0
2017-Jul-26 22:00N 45°37' W 122°47'0 0.0
2017-Jul-26 21:30N 45°37' W 122°47'0 0.0
2017-Jul-26 21:00N 45°37' W 122°47'0 0.0
2017-Jul-26 20:30N 45°37' W 122°47'0 0.0
2017-Jul-26 20:00N 45°37' W 122°47'0 0.0
2017-Jul-26 19:30N 45°37' W 122°47'0 0.0
2017-Jul-26 19:00N 45°37' W 122°47'0 0.0
2017-Jul-26 18:30N 45°37' W 122°47'0 0.0
2017-Jul-26 18:00N 45°37' W 122°47'0 0.0
2017-Jul-26 17:30N 45°37' W 122°47'0 0.0
2017-Jul-26 17:00N 45°37' W 122°47'0 0.0
2017-Jul-26 16:30N 45°37' W 122°47'0 0.0
2017-Jul-26 16:00N 45°37' W 122°47'0 0.0
2017-Jul-26 15:30N 45°37' W 122°47'0 0.0
2017-Jul-26 15:00N 45°37' W 122°47'0 0.0
2017-Jul-26 14:00N 45°37' W 122°47'0 0.0
2017-Jul-26 13:30N 45°37' W 122°47'0 0.0
2017-Jul-26 13:00N 45°37' W 122°47'0 0.0
2017-Jul-26 12:30N 45°37' W 122°47'0 0.0
2017-Jul-26 12:00N 45°37' W 122°47'0 0.0
2017-Jul-26 11:30N 45°37' W 122°47'0 0.0
2017-Jul-26 11:00N 45°37' W 122°47'0 0.0
2017-Jul-26 10:30N 45°37' W 122°47'0 0.0
2017-Jul-26 10:00N 45°37' W 122°47'0 0.0
2017-Jul-26 09:30N 45°37' W 122°47'0 0.0
2017-Jul-26 09:00N 45°37' W 122°47'0 0.0
2017-Jul-26 08:30N 45°37' W 122°47'0 0.0
2017-Jul-26 08:00N 45°37' W 122°47'0 0.0
2017-Jul-26 07:30N 45°37' W 122°47'0 0.0
2017-Jul-26 07:00N 45°37' W 122°47'0 0.0
2017-Jul-26 06:30N 45°37' W 122°47'0 0.0
2017-Jul-26 06:00N 45°37' W 122°47'0 0.0
2017-Jul-26 05:30N 45°37' W 122°47'0 0.0
2017-Jul-26 05:00N 45°37' W 122°47'0 0.0
2017-Jul-26 04:30N 45°37' W 122°47'0 0.0
2017-Jul-26 04:00N 45°37' W 122°47'0 0.0
2017-Jul-26 03:30N 45°37' W 122°47'0 0.0
2017-Jul-26 03:00N 45°37' W 122°47'0 0.0
2017-Jul-26 02:30N 45°37' W 122°47'0 0.0
2017-Jul-26 02:00N 45°37' W 122°47'0 0.0
2017-Jul-26 01:30N 45°37' W 122°47'0 0.0
2017-Jul-26 01:00N 45°37' W 122°47'0 0.0
2017-Jul-26 00:30N 45°37' W 122°47'0 0.0
2017-Jul-26 00:00N 45°37' W 122°47'0 0.0
2017-Jul-25 23:30N 45°37' W 122°47'0 0.0
2017-Jul-25 23:00N 45°37' W 122°47'0 0.0
2017-Jul-25 22:30N 45°37' W 122°47'0 0.0
2017-Jul-25 22:00N 45°37' W 122°47'0 0.0
2017-Jul-25 21:30N 45°37' W 122°47'0 0.0
2017-Jul-25 21:00N 45°37' W 122°47'0 0.0
2017-Jul-25 20:30N 45°37' W 122°47'0 0.0
2017-Jul-25 20:00N 45°37' W 122°47'0 0.0
2017-Jul-25 19:30N 45°37' W 122°47'0 0.0
2017-Jul-25 19:00N 45°37' W 122°47'0 0.0
2017-Jul-25 18:30N 45°37' W 122°47'0 0.0
2017-Jul-25 18:00N 45°37' W 122°47'0 0.0
2017-Jul-25 17:30N 45°37' W 122°47'0 0.0
2017-Jul-25 17:00N 45°37' W 122°47'0 0.0
2017-Jul-25 16:30N 45°37' W 122°47'0 0.0
2017-Jul-25 16:00N 45°37' W 122°47'0 0.0
2017-Jul-25 15:30N 45°37' W 122°47'0 0.0
2017-Jul-25 15:00N 45°37' W 122°47'0 0.0
2017-Jul-25 14:00N 45°37' W 122°47'0 0.0
2017-Jul-25 13:30N 45°37' W 122°47'0 0.0
2017-Jul-25 13:00N 45°37' W 122°47'0 0.0
2017-Jul-25 12:30N 45°37' W 122°47'0 0.0
2017-Jul-25 12:00N 45°37' W 122°47'0 0.0
2017-Jul-25 11:30N 45°37' W 122°47'0 0.0
2017-Jul-25 11:00N 45°37' W 122°47'0 0.0
2017-Jul-25 10:30N 45°37' W 122°47'0 0.0
2017-Jul-25 10:00N 45°37' W 122°47'0 0.0
2017-Jul-25 09:30N 45°37' W 122°47'0 0.0
2017-Jul-25 09:00N 45°37' W 122°47'0 0.1
2017-Jul-25 08:30N 45°37' W 122°47'0 0.0
2017-Jul-25 08:00N 45°37' W 122°47'0 0.0
2017-Jul-25 07:30N 45°37' W 122°47'0 0.0
2017-Jul-25 07:00N 45°37' W 122°47'0 0.1
2017-Jul-25 06:30N 45°37' W 122°47'0 0.4
2017-Jul-25 06:00N 45°38' W 122°47'2 4.9
2017-Jul-25 05:30N 45°40' W 122°46'3 5.0
2017-Jul-25 05:00N 45°42' W 122°46'3 5.1
2017-Jul-25 04:30N 45°45' W 122°46'3 5.1
2017-Jul-25 04:00N 45°47' W 122°47'3 5.2
2017-Jul-25 03:30N 45°50' W 122°48'3 5.5
2017-Jul-25 03:00N 45°53' W 122°48'3 6.1
2017-Jul-25 02:30N 45°55' W 122°48'3 6.3
2017-Jul-25 01:59N 45°59' W 122°50'3 6.8
2017-Jul-25 01:30N 46°01' W 122°52'4 7.0
2017-Jul-25 00:59N 46°05' W 122°54'3 7.0
2017-Jul-25 00:30N 46°07' W 122°58'4 7.0
2017-Jul-25 00:00N 46°09' W 123°02'4 7.0
2017-Jul-24 23:30N 46°11' W 123°06'3 6.7
2017-Jul-24 23:00N 46°11' W 123°11'3 7.1
2017-Jul-24 22:30N 46°09' W 123°16'3 6.9
2017-Jul-24 22:00N 46°09' W 123°21'3 6.5
2017-Jul-24 21:30N 46°10' W 123°25'3 6.2
2017-Jul-24 21:00N 46°13' W 123°25'3 6.7
2017-Jul-24 20:30N 46°16' W 123°28'3 6.5
2017-Jul-24 20:00N 46°16' W 123°33'3 7.0
2017-Jul-24 19:30N 46°16' W 123°38'3 6.9
2017-Jul-24 19:00N 46°15' W 123°42'4 7.0
2017-Jul-24 18:30N 46°13' W 123°47'3 6.5
2017-Jul-24 18:00N 46°12' W 123°51'3 6.2
2017-Jul-24 17:30N 46°12' W 123°56'3 6.5
2017-Jul-24 17:00N 46°14' W 123°59'3 5.7
2017-Jul-24 16:30N 46°16' W 124°03'1 3.0
2017-Jul-24 16:00N 46°15' W 124°05'9 3.1
2017-Jul-24 13:00N 46°16' W 124°18'3 5.8
2017-Jul-24 12:30N 46°19' W 124°19'3 5.8
2017-Jul-24 12:00N 46°22' W 124°20'3 5.9
2017-Jul-24 11:30N 46°25' W 124°21'3 6.0
2017-Jul-24 11:00N 46°28' W 124°22'3 6.0
2017-Jul-24 10:30N 46°31' W 124°23'3 5.9
2017-Jul-24 10:00N 46°34' W 124°24'3 5.9
2017-Jul-24 09:30N 46°37' W 124°25'3 5.9
2017-Jul-24 09:00N 46°39' W 124°26'3 6.0
2017-Jul-24 08:30N 46°42' W 124°27'3 5.8
2017-Jul-24 08:00N 46°45' W 124°27'3 5.9
2017-Jul-24 07:30N 46°48' W 124°28'3 6.0
2017-Jul-24 07:00N 46°51' W 124°29'3 6.3
2017-Jul-24 06:30N 46°54' W 124°30'3 6.7
2017-Jul-24 06:00N 46°57' W 124°31'4 7.2
2017-Jul-24 05:30N 47°01' W 124°32'4 7.5
2017-Jul-24 05:00N 47°05' W 124°34'4 7.5
2017-Jul-24 04:30N 47°08' W 124°35'67 6.3
2017-Jul-23 17:50N 48°14' W 124°59'2 6.1
2017-Jul-23 17:30N 48°15' W 124°57'3 6.3
2017-Jul-23 16:59N 48°18' W 124°55'3 6.5
2017-Jul-23 16:30N 48°21' W 124°52'4 7.1
2017-Jul-23 16:00N 48°24' W 124°49'4 7.2
2017-Jul-23 15:30N 48°26' W 124°45'4 7.7
2017-Jul-23 15:00N 48°25' W 124°39'4 8.1
2017-Jul-23 14:30N 48°24' W 124°34'4 8.5
2017-Jul-23 14:00N 48°22' W 124°28'4 8.6
2017-Jul-23 13:30N 48°20' W 124°22'4 8.2
2017-Jul-23 13:00N 48°18' W 124°16'4 8.0
2017-Jul-23 12:30N 48°17' W 124°11'4 7.6
2017-Jul-23 11:59N 48°15' W 124°06'4 7.4
2017-Jul-23 11:30N 48°13' W 124°01'3 6.8
2017-Jul-23 11:00N 48°12' W 123°56'3 6.1
2017-Jul-23 10:30N 48°12' W 123°52'3 6.2
2017-Jul-23 10:00N 48°12' W 123°47'3 6.0
2017-Jul-23 09:30N 48°12' W 123°42'3 6.2
2017-Jul-23 09:00N 48°12' W 123°38'4 7.4
2017-Jul-23 08:30N 48°14' W 123°33'3 6.5
2017-Jul-23 08:00N 48°17' W 123°30'3 6.7
2017-Jul-23 07:30N 48°20' W 123°27'3 6.2
2017-Jul-23 07:00N 48°22' W 123°25'3 6.4
2017-Jul-23 06:30N 48°23' W 123°20'3 6.3
2017-Jul-23 06:00N 48°24' W 123°15'3 6.6
2017-Jul-23 05:30N 48°26' W 123°12'4 7.6
2017-Jul-23 05:00N 48°30' W 123°12'4 8.9
2017-Jul-23 04:30N 48°34' W 123°14'5 8.9
2017-Jul-23 04:00N 48°39' W 123°16'5 8.5
2017-Jul-23 03:22N 48°44' W 123°18'26 6.7
2017-Jul-22 23:28N 49°08' W 123°36'3 6.2
2017-Jul-22 22:57N 49°10' W 123°38'26 6.7
2017-Jul-22 19:07N 49°28' W 124°07'12 6.4
2017-Jul-22 17:16N 49°34' W 124°23'2 6.7
2017-Jul-22 16:59N 49°35' W 124°25'3 6.4
2017-Jul-22 16:29N 49°37' W 124°29'3 6.4
2017-Jul-22 15:57N 49°39' W 124°33'3 6.5
2017-Jul-22 15:28N 49°41' W 124°37'3 6.5
2017-Jul-22 15:00N 49°43' W 124°40'6 6.5
2017-Jul-22 14:01N 49°47' W 124°48'3 6.4
2017-Jul-22 13:30N 49°49' W 124°51'3 6.5
2017-Jul-22 13:00N 49°51' W 124°55'3 6.7
2017-Jul-22 12:30N 49°53' W 124°60'3 6.8
2017-Jul-22 12:00N 49°55' W 125°04'4 8.1
2017-Jul-22 11:30N 49°57' W 125°09'4 7.4
2017-Jul-22 11:00N 50°00' W 125°13'4 8.7
2017-Jul-22 10:31N 50°04' W 125°15'4 8.9
2017-Jul-22 10:00N 50°07' W 125°20'4 7.4
2017-Jul-22 09:30N 50°11' W 125°22'3 5.9
2017-Jul-22 09:00N 50°14' W 125°23'2 4.8
2017-Jul-22 08:30N 50°16' W 125°24'3 5.2
2017-Jul-22 07:59N 50°19' W 125°25'2 4.2
2017-Jul-22 07:28N 50°20' W 125°27'51 5.3
2017-Jul-21 21:47N 50°36' W 126°44'10 8.2
2017-Jul-21 20:34N 50°42' W 126°56'1 7.7
2017-Jul-21 20:29N 50°42' W 126°57'4 7.4
2017-Jul-21 19:56N 50°43' W 127°03'5 7.2
2017-Jul-21 19:13N 50°45' W 127°11'2 7.3
2017-Jul-21 18:53N 50°46' W 127°14'3 7.5
2017-Jul-21 18:30N 50°47' W 127°18'4 7.2
2017-Jul-21 18:00N 50°49' W 127°24'4 7.1
2017-Jul-21 17:30N 50°50' W 127°29'4 7.6
2017-Jul-21 17:01N 50°52' W 127°34'3 6.8
2017-Jul-21 16:30N 50°54' W 127°39'3 6.5
2017-Jul-21 16:01N 50°56' W 127°42'3 6.6
2017-Jul-21 15:31N 50°59' W 127°46'4 7.0
2017-Jul-21 15:01N 51°02' W 127°49'4 7.2
2017-Jul-21 14:31N 51°05' W 127°50'4 7.0
2017-Jul-21 14:01N 51°09' W 127°51'3 7.0
2017-Jul-21 13:30N 51°12' W 127°52'3 7.0
2017-Jul-21 13:01N 51°15' W 127°53'7 7.0
2017-Jul-21 12:01N 51°22' W 127°58'2 6.8
2017-Jul-21 11:44N 51°23' W 128°00'1 6.7
2017-Jul-21 11:31N 51°24' W 128°02'3 6.7
2017-Jul-21 11:01N 51°26' W 128°06'3 6.7
2017-Jul-21 10:30N 51°28' W 128°10'3 6.9
2017-Jul-21 10:00N 51°31' W 128°14'4 7.2
2017-Jul-21 09:31N 51°34' W 128°17'4 7.4
2017-Jul-21 09:01N 51°37' W 128°20'4 7.4
2017-Jul-21 08:30N 51°40' W 128°23'4 7.8
2017-Jul-21 08:01N 51°44' W 128°26'4 7.7
2017-Jul-21 07:30N 51°47' W 128°29'4 7.5
2017-Jul-21 07:01N 51°50' W 128°32'4 7.7
2017-Jul-21 06:31N 51°54' W 128°35'4 7.7
2017-Jul-21 06:00N 51°57' W 128°37'4 7.5
2017-Jul-21 05:30N 52°01' W 128°39'4 7.2
2017-Jul-21 05:00N 52°04' W 128°41'3 6.7
2017-Jul-21 04:31N 52°08' W 128°43'4 6.7
2017-Jul-21 03:55N 52°11' W 128°45'  

Dump ship's entire track history